sensor_id;sensor_type;location;lat;lon;timestamp;P1;durP1;ratioP1;P2;durP2;ratioP2
6519;SDS011;3293;51.690;5.982;2024-01-30T00:02:27;16.40;;;12.03;;
6519;SDS011;3293;51.690;5.982;2024-01-30T00:07:27;18.13;;;13.03;;
6519;SDS011;3293;51.690;5.982;2024-01-30T00:12:27;17.90;;;12.83;;
6519;SDS011;3293;51.690;5.982;2024-01-30T00:17:27;16.40;;;12.80;;
6519;SDS011;3293;51.690;5.982;2024-01-30T00:22:27;17.30;;;12.20;;
6519;SDS011;3293;51.690;5.982;2024-01-30T00:27:29;15.90;;;12.40;;
6519;SDS011;3293;51.690;5.982;2024-01-30T00:32:30;15.53;;;13.00;;
6519;SDS011;3293;51.690;5.982;2024-01-30T00:37:29;16.70;;;12.70;;
6519;SDS011;3293;51.690;5.982;2024-01-30T00:42:31;15.87;;;11.90;;
6519;SDS011;3293;51.690;5.982;2024-01-30T00:47:31;18.70;;;13.47;;
6519;SDS011;3293;51.690;5.982;2024-01-30T00:52:32;17.80;;;12.70;;
6519;SDS011;3293;51.690;5.982;2024-01-30T00:57:32;19.13;;;13.10;;
6519;SDS011;3293;51.690;5.982;2024-01-30T01:02:32;16.90;;;12.37;;
6519;SDS011;3293;51.690;5.982;2024-01-30T01:07:32;16.70;;;11.97;;
6519;SDS011;3293;51.690;5.982;2024-01-30T01:12:32;21.17;;;12.27;;
6519;SDS011;3293;51.690;5.982;2024-01-30T01:17:32;12.47;;;10.07;;
6519;SDS011;3293;51.690;5.982;2024-01-30T01:22:32;15.37;;;11.20;;
6519;SDS011;3293;51.690;5.982;2024-01-30T01:27:32;18.00;;;11.33;;
6519;SDS011;3293;51.690;5.982;2024-01-30T01:32:33;14.97;;;11.30;;
6519;SDS011;3293;51.690;5.982;2024-01-30T01:37:33;17.50;;;10.93;;
6519;SDS011;3293;51.690;5.982;2024-01-30T01:42:33;15.37;;;11.43;;
6519;SDS011;3293;51.690;5.982;2024-01-30T01:47:33;15.20;;;11.43;;
6519;SDS011;3293;51.690;5.982;2024-01-30T01:52:33;14.60;;;11.40;;
6519;SDS011;3293;51.690;5.982;2024-01-30T01:57:33;15.77;;;11.90;;
6519;SDS011;3293;51.690;5.982;2024-01-30T02:02:35;13.53;;;10.00;;
6519;SDS011;3293;51.690;5.982;2024-01-30T02:07:35;19.33;;;12.10;;
6519;SDS011;3293;51.690;5.982;2024-01-30T02:12:35;16.67;;;10.67;;
6519;SDS011;3293;51.690;5.982;2024-01-30T02:17:35;18.00;;;11.47;;
6519;SDS011;3293;51.690;5.982;2024-01-30T02:22:35;15.83;;;11.27;;
6519;SDS011;3293;51.690;5.982;2024-01-30T02:27:36;17.47;;;10.40;;
6519;SDS011;3293;51.690;5.982;2024-01-30T02:32:36;19.27;;;10.73;;
6519;SDS011;3293;51.690;5.982;2024-01-30T02:37:36;17.13;;;10.80;;
6519;SDS011;3293;51.690;5.982;2024-01-30T02:42:36;18.40;;;10.93;;
6519;SDS011;3293;51.690;5.982;2024-01-30T02:47:36;12.07;;;10.13;;
6519;SDS011;3293;51.690;5.982;2024-01-30T02:52:36;16.43;;;10.27;;
6519;SDS011;3293;51.690;5.982;2024-01-30T02:57:36;12.37;;;9.83;;
6519;SDS011;3293;51.690;5.982;2024-01-30T03:02:36;14.87;;;10.57;;
6519;SDS011;3293;51.690;5.982;2024-01-30T03:07:36;14.10;;;9.53;;
6519;SDS011;3293;51.690;5.982;2024-01-30T03:12:36;14.83;;;10.93;;
6519;SDS011;3293;51.690;5.982;2024-01-30T03:17:36;16.30;;;10.60;;
6519;SDS011;3293;51.690;5.982;2024-01-30T03:22:36;15.40;;;11.27;;
6519;SDS011;3293;51.690;5.982;2024-01-30T03:27:36;15.83;;;10.63;;
6519;SDS011;3293;51.690;5.982;2024-01-30T03:32:36;13.83;;;10.27;;
6519;SDS011;3293;51.690;5.982;2024-01-30T03:37:36;13.60;;;9.73;;
6519;SDS011;3293;51.690;5.982;2024-01-30T03:42:35;15.77;;;11.60;;
6519;SDS011;3293;51.690;5.982;2024-01-30T03:47:35;16.60;;;11.13;;
6519;SDS011;3293;51.690;5.982;2024-01-30T03:52:35;15.77;;;10.73;;
6519;SDS011;3293;51.690;5.982;2024-01-30T03:57:35;17.93;;;10.67;;
6519;SDS011;3293;51.690;5.982;2024-01-30T04:02:35;13.67;;;9.57;;
6519;SDS011;3293;51.690;5.982;2024-01-30T04:07:35;15.70;;;10.13;;
6519;SDS011;3293;51.690;5.982;2024-01-30T04:12:35;15.77;;;10.40;;
6519;SDS011;3293;51.690;5.982;2024-01-30T04:17:35;13.47;;;9.53;;
6519;SDS011;3293;51.690;5.982;2024-01-30T04:22:35;13.43;;;9.60;;
6519;SDS011;3293;51.690;5.982;2024-01-30T04:27:35;13.47;;;9.70;;
6519;SDS011;3293;51.690;5.982;2024-01-30T04:32:35;12.73;;;9.80;;
6519;SDS011;3293;51.690;5.982;2024-01-30T04:37:36;12.20;;;9.20;;
6519;SDS011;3293;51.690;5.982;2024-01-30T04:42:36;12.40;;;9.33;;
6519;SDS011;3293;51.690;5.982;2024-01-30T04:47:36;12.60;;;9.67;;
6519;SDS011;3293;51.690;5.982;2024-01-30T04:52:35;13.27;;;9.40;;
6519;SDS011;3293;51.690;5.982;2024-01-30T04:57:35;14.57;;;9.57;;
6519;SDS011;3293;51.690;5.982;2024-01-30T05:02:36;11.17;;;9.33;;
6519;SDS011;3293;51.690;5.982;2024-01-30T05:07:36;12.63;;;9.70;;
6519;SDS011;3293;51.690;5.982;2024-01-30T05:12:38;12.30;;;9.30;;
6519;SDS011;3293;51.690;5.982;2024-01-30T05:17:38;11.97;;;9.60;;
6519;SDS011;3293;51.690;5.982;2024-01-30T05:22:38;10.47;;;9.00;;
6519;SDS011;3293;51.690;5.982;2024-01-30T05:27:44;15.87;;;8.97;;
6519;SDS011;3293;51.690;5.982;2024-01-30T05:32:44;12.23;;;9.30;;
6519;SDS011;3293;51.690;5.982;2024-01-30T05:37:44;11.77;;;9.17;;
6519;SDS011;3293;51.690;5.982;2024-01-30T05:42:44;12.57;;;8.90;;
6519;SDS011;3293;51.690;5.982;2024-01-30T05:47:43;14.27;;;9.13;;
6519;SDS011;3293;51.690;5.982;2024-01-30T05:52:43;13.43;;;9.10;;
6519;SDS011;3293;51.690;5.982;2024-01-30T05:57:43;13.43;;;9.40;;
6519;SDS011;3293;51.690;5.982;2024-01-30T06:02:43;12.20;;;8.57;;
6519;SDS011;3293;51.690;5.982;2024-01-30T06:07:43;10.00;;;8.53;;
6519;SDS011;3293;51.690;5.982;2024-01-30T06:12:43;12.50;;;8.37;;
6519;SDS011;3293;51.690;5.982;2024-01-30T06:17:43;13.23;;;9.30;;
6519;SDS011;3293;51.690;5.982;2024-01-30T06:22:43;12.43;;;8.27;;
6519;SDS011;3293;51.690;5.982;2024-01-30T06:27:43;11.83;;;8.67;;
6519;SDS011;3293;51.690;5.982;2024-01-30T06:32:43;16.33;;;10.63;;
6519;SDS011;3293;51.690;5.982;2024-01-30T06:37:43;13.67;;;9.20;;
6519;SDS011;3293;51.690;5.982;2024-01-30T06:42:42;9.97;;;8.17;;
6519;SDS011;3293;51.690;5.982;2024-01-30T06:47:42;11.50;;;8.43;;
6519;SDS011;3293;51.690;5.982;2024-01-30T06:52:42;11.40;;;8.60;;
6519;SDS011;3293;51.690;5.982;2024-01-30T06:57:42;10.73;;;8.60;;
6519;SDS011;3293;51.690;5.982;2024-01-30T07:02:42;14.63;;;9.90;;
6519;SDS011;3293;51.690;5.982;2024-01-30T07:07:42;12.70;;;8.90;;
6519;SDS011;3293;51.690;5.982;2024-01-30T07:12:42;10.17;;;7.83;;
6519;SDS011;3293;51.690;5.982;2024-01-30T07:17:42;11.83;;;8.00;;
6519;SDS011;3293;51.690;5.982;2024-01-30T07:22:43;12.07;;;8.80;;
6519;SDS011;3293;51.690;5.982;2024-01-30T07:27:43;11.17;;;8.80;;
6519;SDS011;3293;51.690;5.982;2024-01-30T07:32:43;10.00;;;8.47;;
6519;SDS011;3293;51.690;5.982;2024-01-30T07:37:43;12.17;;;8.47;;
6519;SDS011;3293;51.690;5.982;2024-01-30T07:42:43;11.90;;;8.53;;
6519;SDS011;3293;51.690;5.982;2024-01-30T07:47:43;11.83;;;8.60;;
6519;SDS011;3293;51.690;5.982;2024-01-30T07:52:43;9.40;;;8.30;;
6519;SDS011;3293;51.690;5.982;2024-01-30T07:57:43;10.90;;;8.30;;
6519;SDS011;3293;51.690;5.982;2024-01-30T08:02:42;12.43;;;8.43;;
6519;SDS011;3293;51.690;5.982;2024-01-30T08:07:42;10.13;;;8.30;;
6519;SDS011;3293;51.690;5.982;2024-01-30T08:12:42;9.60;;;8.10;;
6519;SDS011;3293;51.690;5.982;2024-01-30T08:17:42;12.57;;;8.47;;
6519;SDS011;3293;51.690;5.982;2024-01-30T08:22:44;10.67;;;8.03;;
6519;SDS011;3293;51.690;5.982;2024-01-30T08:27:44;9.00;;;8.07;;
6519;SDS011;3293;51.690;5.982;2024-01-30T08:32:44;13.13;;;8.80;;
6519;SDS011;3293;51.690;5.982;2024-01-30T08:37:44;9.87;;;8.20;;
6519;SDS011;3293;51.690;5.982;2024-01-30T08:42:44;12.57;;;8.73;;
6519;SDS011;3293;51.690;5.982;2024-01-30T08:47:44;14.00;;;7.90;;
6519;SDS011;3293;51.690;5.982;2024-01-30T08:52:43;11.73;;;7.67;;
6519;SDS011;3293;51.690;5.982;2024-01-30T08:57:43;10.47;;;7.80;;
6519;SDS011;3293;51.690;5.982;2024-01-30T09:02:43;10.90;;;8.00;;
6519;SDS011;3293;51.690;5.982;2024-01-30T09:07:43;12.50;;;7.70;;
6519;SDS011;3293;51.690;5.982;2024-01-30T09:12:43;12.67;;;7.83;;
6519;SDS011;3293;51.690;5.982;2024-01-30T09:17:43;11.20;;;7.73;;
6519;SDS011;3293;51.690;5.982;2024-01-30T09:22:43;9.47;;;7.30;;
6519;SDS011;3293;51.690;5.982;2024-01-30T09:27:43;8.50;;;7.43;;
6519;SDS011;3293;51.690;5.982;2024-01-30T09:32:43;8.90;;;7.33;;
6519;SDS011;3293;51.690;5.982;2024-01-30T09:37:43;8.83;;;7.63;;
6519;SDS011;3293;51.690;5.982;2024-01-30T09:42:42;11.77;;;8.23;;
6519;SDS011;3293;51.690;5.982;2024-01-30T09:47:46;11.03;;;8.07;;
6519;SDS011;3293;51.690;5.982;2024-01-30T09:52:46;11.37;;;7.70;;
6519;SDS011;3293;51.690;5.982;2024-01-30T09:57:47;10.47;;;7.20;;
6519;SDS011;3293;51.690;5.982;2024-01-30T10:02:47;9.53;;;7.63;;
6519;SDS011;3293;51.690;5.982;2024-01-30T10:07:52;11.97;;;7.93;;
6519;SDS011;3293;51.690;5.982;2024-01-30T10:12:53;10.87;;;7.93;;
6519;SDS011;3293;51.690;5.982;2024-01-30T10:17:53;10.47;;;7.57;;
6519;SDS011;3293;51.690;5.982;2024-01-30T10:22:53;13.23;;;8.10;;
6519;SDS011;3293;51.690;5.982;2024-01-30T10:27:53;10.30;;;7.70;;
6519;SDS011;3293;51.690;5.982;2024-01-30T10:32:57;13.60;;;7.90;;
6519;SDS011;3293;51.690;5.982;2024-01-30T10:37:58;13.23;;;7.90;;
6519;SDS011;3293;51.690;5.982;2024-01-30T10:42:58;12.07;;;8.03;;
6519;SDS011;3293;51.690;5.982;2024-01-30T10:48:00;10.50;;;7.57;;
6519;SDS011;3293;51.690;5.982;2024-01-30T10:53:03;15.37;;;7.00;;
6519;SDS011;3293;51.690;5.982;2024-01-30T10:58:04;11.90;;;7.37;;
6519;SDS011;3293;51.690;5.982;2024-01-30T11:03:05;13.67;;;8.07;;
6519;SDS011;3293;51.690;5.982;2024-01-30T11:08:14;11.87;;;7.70;;
6519;SDS011;3293;51.690;5.982;2024-01-30T11:13:15;13.97;;;8.63;;
6519;SDS011;3293;51.690;5.982;2024-01-30T11:18:36;13.57;;;9.23;;
6519;SDS011;3293;51.690;5.982;2024-01-30T11:23:36;12.70;;;8.10;;
6519;SDS011;3293;51.690;5.982;2024-01-30T11:28:37;10.90;;;8.40;;
6519;SDS011;3293;51.690;5.982;2024-01-30T11:33:37;12.40;;;8.10;;
6519;SDS011;3293;51.690;5.982;2024-01-30T11:38:38;12.43;;;8.47;;
6519;SDS011;3293;51.690;5.982;2024-01-30T11:43:37;16.80;;;7.20;;
6519;SDS011;3293;51.690;5.982;2024-01-30T11:48:38;9.13;;;7.17;;
6519;SDS011;3293;51.690;5.982;2024-01-30T11:53:37;10.53;;;7.13;;
6519;SDS011;3293;51.690;5.982;2024-01-30T11:58:37;14.80;;;7.70;;
6519;SDS011;3293;51.690;5.982;2024-01-30T12:03:42;14.27;;;8.00;;
6519;SDS011;3293;51.690;5.982;2024-01-30T12:08:42;12.60;;;7.63;;
6519;SDS011;3293;51.690;5.982;2024-01-30T12:13:42;12.37;;;7.90;;
6519;SDS011;3293;51.690;5.982;2024-01-30T12:18:43;11.20;;;8.33;;
6519;SDS011;3293;51.690;5.982;2024-01-30T12:23:42;12.87;;;7.57;;
6519;SDS011;3293;51.690;5.982;2024-01-30T12:28:49;12.43;;;7.00;;
6519;SDS011;3293;51.690;5.982;2024-01-30T12:33:49;11.23;;;6.90;;
6519;SDS011;3293;51.690;5.982;2024-01-30T12:38:49;12.23;;;6.40;;
6519;SDS011;3293;51.690;5.982;2024-01-30T12:43:49;8.77;;;6.00;;
6519;SDS011;3293;51.690;5.982;2024-01-30T12:48:49;8.27;;;6.07;;
6519;SDS011;3293;51.690;5.982;2024-01-30T12:53:49;8.27;;;5.80;;
6519;SDS011;3293;51.690;5.982;2024-01-30T12:58:49;11.67;;;6.30;;
6519;SDS011;3293;51.690;5.982;2024-01-30T13:03:50;9.67;;;6.33;;
6519;SDS011;3293;51.690;5.982;2024-01-30T13:08:49;6.67;;;4.80;;
6519;SDS011;3293;51.690;5.982;2024-01-30T13:13:50;8.97;;;4.43;;
6519;SDS011;3293;51.690;5.982;2024-01-30T13:18:49;8.10;;;4.50;;
6519;SDS011;3293;51.690;5.982;2024-01-30T13:23:49;5.00;;;4.30;;
6519;SDS011;3293;51.690;5.982;2024-01-30T13:28:52;8.53;;;3.47;;
6519;SDS011;3293;51.690;5.982;2024-01-30T13:33:52;5.33;;;3.10;;
6519;SDS011;3293;51.690;5.982;2024-01-30T13:38:52;6.53;;;3.10;;
6519;SDS011;3293;51.690;5.982;2024-01-30T13:43:52;3.90;;;2.70;;
6519;SDS011;3293;51.690;5.982;2024-01-30T13:48:53;5.60;;;2.60;;
6519;SDS011;3293;51.690;5.982;2024-01-30T13:53:53;2.60;;;2.40;;
6519;SDS011;3293;51.690;5.982;2024-01-30T13:58:53;3.27;;;2.00;;
6519;SDS011;3293;51.690;5.982;2024-01-30T14:03:55;4.80;;;2.20;;
6519;SDS011;3293;51.690;5.982;2024-01-30T14:08:55;3.53;;;2.27;;
6519;SDS011;3293;51.690;5.982;2024-01-30T14:13:54;2.53;;;2.20;;
6519;SDS011;3293;51.690;5.982;2024-01-30T14:18:54;3.73;;;2.23;;
6519;SDS011;3293;51.690;5.982;2024-01-30T14:23:54;2.13;;;1.97;;
6519;SDS011;3293;51.690;5.982;2024-01-30T14:28:54;5.50;;;2.63;;
6519;SDS011;3293;51.690;5.982;2024-01-30T14:33:54;2.93;;;2.53;;
6519;SDS011;3293;51.690;5.982;2024-01-30T14:38:55;6.43;;;2.40;;
6519;SDS011;3293;51.690;5.982;2024-01-30T14:43:55;3.53;;;2.53;;
6519;SDS011;3293;51.690;5.982;2024-01-30T14:48:55;4.27;;;2.60;;
6519;SDS011;3293;51.690;5.982;2024-01-30T14:53:57;5.47;;;4.07;;
6519;SDS011;3293;51.690;5.982;2024-01-30T14:58:56;4.13;;;2.90;;
6519;SDS011;3293;51.690;5.982;2024-01-30T15:03:56;4.10;;;2.10;;
6519;SDS011;3293;51.690;5.982;2024-01-30T15:08:56;3.63;;;2.27;;
6519;SDS011;3293;51.690;5.982;2024-01-30T15:13:56;4.80;;;4.03;;
6519;SDS011;3293;51.690;5.982;2024-01-30T15:18:56;7.13;;;3.60;;
6519;SDS011;3293;51.690;5.982;2024-01-30T15:23:56;5.57;;;4.10;;
6519;SDS011;3293;51.690;5.982;2024-01-30T15:28:56;8.40;;;4.50;;
6519;SDS011;3293;51.690;5.982;2024-01-30T15:33:56;5.23;;;4.50;;
6519;SDS011;3293;51.690;5.982;2024-01-30T15:38:57;8.47;;;5.20;;
6519;SDS011;3293;51.690;5.982;2024-01-30T15:43:57;10.30;;;5.83;;
6519;SDS011;3293;51.690;5.982;2024-01-30T15:48:58;6.53;;;4.93;;
6519;SDS011;3293;51.690;5.982;2024-01-30T15:53:59;6.77;;;5.47;;
6519;SDS011;3293;51.690;5.982;2024-01-30T15:58:58;10.47;;;6.10;;
6519;SDS011;3293;51.690;5.982;2024-01-30T16:03:59;8.23;;;6.07;;
6519;SDS011;3293;51.690;5.982;2024-01-30T16:08:59;14.10;;;6.63;;
6519;SDS011;3293;51.690;5.982;2024-01-30T16:13:58;7.77;;;5.93;;
6519;SDS011;3293;51.690;5.982;2024-01-30T16:18:58;8.23;;;6.17;;
6519;SDS011;3293;51.690;5.982;2024-01-30T16:23:59;8.93;;;5.13;;
6519;SDS011;3293;51.690;5.982;2024-01-30T16:28:59;10.33;;;5.10;;
6519;SDS011;3293;51.690;5.982;2024-01-30T16:33:59;7.43;;;4.67;;
6519;SDS011;3293;51.690;5.982;2024-01-30T16:38:59;10.57;;;4.97;;
6519;SDS011;3293;51.690;5.982;2024-01-30T16:44:02;7.93;;;4.73;;
6519;SDS011;3293;51.690;5.982;2024-01-30T16:49:02;6.80;;;4.83;;
6519;SDS011;3293;51.690;5.982;2024-01-30T16:54:02;5.63;;;4.80;;
6519;SDS011;3293;51.690;5.982;2024-01-30T16:59:02;7.70;;;4.87;;
6519;SDS011;3293;51.690;5.982;2024-01-30T17:04:02;8.80;;;5.77;;
6519;SDS011;3293;51.690;5.982;2024-01-30T17:09:02;6.83;;;6.10;;
6519;SDS011;3293;51.690;5.982;2024-01-30T17:14:02;8.83;;;7.03;;
6519;SDS011;3293;51.690;5.982;2024-01-30T17:19:02;9.27;;;6.53;;
6519;SDS011;3293;51.690;5.982;2024-01-30T17:24:02;11.63;;;7.70;;
6519;SDS011;3293;51.690;5.982;2024-01-30T17:29:03;10.90;;;8.43;;
6519;SDS011;3293;51.690;5.982;2024-01-30T17:34:03;9.83;;;7.70;;
6519;SDS011;3293;51.690;5.982;2024-01-30T17:39:02;10.53;;;8.27;;
6519;SDS011;3293;51.690;5.982;2024-01-30T17:44:02;13.27;;;9.53;;
6519;SDS011;3293;51.690;5.982;2024-01-30T17:49:03;15.40;;;10.10;;
6519;SDS011;3293;51.690;5.982;2024-01-30T17:54:03;16.57;;;11.17;;
6519;SDS011;3293;51.690;5.982;2024-01-30T17:59:03;14.23;;;10.37;;
6519;SDS011;3293;51.690;5.982;2024-01-30T18:04:03;14.73;;;10.97;;
6519;SDS011;3293;51.690;5.982;2024-01-30T18:09:03;17.80;;;12.67;;
6519;SDS011;3293;51.690;5.982;2024-01-30T18:14:03;17.03;;;12.10;;
6519;SDS011;3293;51.690;5.982;2024-01-30T18:19:03;16.50;;;11.53;;
6519;SDS011;3293;51.690;5.982;2024-01-30T18:24:04;17.07;;;11.97;;
6519;SDS011;3293;51.690;5.982;2024-01-30T18:29:04;19.20;;;12.47;;
6519;SDS011;3293;51.690;5.982;2024-01-30T18:34:05;26.00;;;15.93;;
6519;SDS011;3293;51.690;5.982;2024-01-30T18:39:06;19.50;;;13.67;;
6519;SDS011;3293;51.690;5.982;2024-01-30T18:44:06;24.33;;;16.33;;
6519;SDS011;3293;51.690;5.982;2024-01-30T18:49:07;26.80;;;15.10;;
6519;SDS011;3293;51.690;5.982;2024-01-30T18:54:06;20.73;;;14.23;;
6519;SDS011;3293;51.690;5.982;2024-01-30T18:59:06;19.93;;;14.03;;
6519;SDS011;3293;51.690;5.982;2024-01-30T19:04:06;19.50;;;13.43;;
6519;SDS011;3293;51.690;5.982;2024-01-30T19:09:07;19.57;;;13.00;;
6519;SDS011;3293;51.690;5.982;2024-01-30T19:14:07;20.03;;;12.17;;
6519;SDS011;3293;51.690;5.982;2024-01-30T19:19:07;18.23;;;11.90;;
6519;SDS011;3293;51.690;5.982;2024-01-30T19:24:07;20.47;;;13.43;;
6519;SDS011;3293;51.690;5.982;2024-01-30T19:29:07;21.83;;;13.37;;
6519;SDS011;3293;51.690;5.982;2024-01-30T19:34:07;19.87;;;13.40;;
6519;SDS011;3293;51.690;5.982;2024-01-30T19:39:07;18.67;;;12.60;;
6519;SDS011;3293;51.690;5.982;2024-01-30T19:44:14;21.53;;;13.97;;
6519;SDS011;3293;51.690;5.982;2024-01-30T19:49:14;18.93;;;12.80;;
6519;SDS011;3293;51.690;5.982;2024-01-30T19:54:15;22.30;;;13.03;;
6519;SDS011;3293;51.690;5.982;2024-01-30T19:59:16;18.90;;;13.40;;
6519;SDS011;3293;51.690;5.982;2024-01-30T20:04:16;15.57;;;11.63;;
6519;SDS011;3293;51.690;5.982;2024-01-30T20:09:16;16.60;;;12.03;;
6519;SDS011;3293;51.690;5.982;2024-01-30T20:14:16;17.77;;;12.67;;
6519;SDS011;3293;51.690;5.982;2024-01-30T20:19:16;18.23;;;12.73;;
6519;SDS011;3293;51.690;5.982;2024-01-30T20:24:16;18.93;;;12.40;;
6519;SDS011;3293;51.690;5.982;2024-01-30T20:29:16;19.23;;;12.37;;
6519;SDS011;3293;51.690;5.982;2024-01-30T20:34:17;21.53;;;13.73;;
6519;SDS011;3293;51.690;5.982;2024-01-30T20:39:17;20.87;;;13.23;;
6519;SDS011;3293;51.690;5.982;2024-01-30T20:44:17;21.10;;;14.00;;
6519;SDS011;3293;51.690;5.982;2024-01-30T20:49:19;21.73;;;13.83;;
6519;SDS011;3293;51.690;5.982;2024-01-30T20:54:18;19.77;;;13.53;;
6519;SDS011;3293;51.690;5.982;2024-01-30T20:59:18;19.20;;;13.23;;
6519;SDS011;3293;51.690;5.982;2024-01-30T21:04:18;20.03;;;13.33;;
6519;SDS011;3293;51.690;5.982;2024-01-30T21:09:18;20.83;;;13.47;;
6519;SDS011;3293;51.690;5.982;2024-01-30T21:14:18;19.63;;;12.87;;
6519;SDS011;3293;51.690;5.982;2024-01-30T21:19:18;18.00;;;10.97;;
6519;SDS011;3293;51.690;5.982;2024-01-30T21:24:18;23.00;;;11.00;;
6519;SDS011;3293;51.690;5.982;2024-01-30T21:29:17;15.07;;;10.03;;
6519;SDS011;3293;51.690;5.982;2024-01-30T21:34:17;17.40;;;10.43;;
6519;SDS011;3293;51.690;5.982;2024-01-30T21:39:17;17.50;;;10.73;;
6519;SDS011;3293;51.690;5.982;2024-01-30T21:44:17;13.83;;;9.10;;
6519;SDS011;3293;51.690;5.982;2024-01-30T21:49:17;16.57;;;10.27;;
6519;SDS011;3293;51.690;5.982;2024-01-30T21:54:17;14.77;;;9.83;;
6519;SDS011;3293;51.690;5.982;2024-01-30T21:59:17;18.53;;;9.50;;
6519;SDS011;3293;51.690;5.982;2024-01-30T22:04:17;18.90;;;10.03;;
6519;SDS011;3293;51.690;5.982;2024-01-30T22:09:20;18.23;;;8.97;;
6519;SDS011;3293;51.690;5.982;2024-01-30T22:14:21;22.70;;;10.27;;
6519;SDS011;3293;51.690;5.982;2024-01-30T22:19:21;17.20;;;8.27;;
6519;SDS011;3293;51.690;5.982;2024-01-30T22:24:21;16.57;;;8.67;;
6519;SDS011;3293;51.690;5.982;2024-01-30T22:29:21;21.40;;;9.13;;
6519;SDS011;3293;51.690;5.982;2024-01-30T22:34:21;18.97;;;7.23;;
6519;SDS011;3293;51.690;5.982;2024-01-30T22:39:21;15.80;;;7.60;;
6519;SDS011;3293;51.690;5.982;2024-01-30T22:44:21;21.30;;;6.80;;
6519;SDS011;3293;51.690;5.982;2024-01-30T22:49:21;16.70;;;6.97;;
6519;SDS011;3293;51.690;5.982;2024-01-30T22:54:21;14.63;;;6.60;;
6519;SDS011;3293;51.690;5.982;2024-01-30T22:59:21;12.80;;;5.97;;
6519;SDS011;3293;51.690;5.982;2024-01-30T23:04:20;15.10;;;5.23;;
6519;SDS011;3293;51.690;5.982;2024-01-30T23:09:20;12.47;;;5.40;;
6519;SDS011;3293;51.690;5.982;2024-01-30T23:14:20;13.53;;;5.13;;
6519;SDS011;3293;51.690;5.982;2024-01-30T23:19:20;10.50;;;5.03;;
6519;SDS011;3293;51.690;5.982;2024-01-30T23:24:20;10.17;;;4.63;;
6519;SDS011;3293;51.690;5.982;2024-01-30T23:29:20;12.23;;;4.47;;
6519;SDS011;3293;51.690;5.982;2024-01-30T23:34:20;12.23;;;3.77;;
6519;SDS011;3293;51.690;5.982;2024-01-30T23:39:20;9.97;;;3.90;;
6519;SDS011;3293;51.690;5.982;2024-01-30T23:44:19;9.33;;;3.30;;
6519;SDS011;3293;51.690;5.982;2024-01-30T23:49:20;12.80;;;3.80;;
6519;SDS011;3293;51.690;5.982;2024-01-30T23:54:21;7.53;;;2.67;;
6519;SDS011;3293;51.690;5.982;2024-01-30T23:59:21;7.00;;;2.63;;
